Time,TemperatureF,DewpointF,PressureIn,WindDirection,WindDirectionDegrees,WindSpeedMPH,WindSpeedGustMPH,Humidity,HourlyPrecipIn,Conditions,Clouds,dailyrainin,SoftwareType,DateUTC
2013-11-24 00:00:00,47.5,40.3,30.23,North,9,0.0,8.0,76,0.00,,,0.00,WeatherTracker,2013-11-24 06:00:00,
2013-11-24 00:10:00,47.3,40.1,30.24,NNE,13,0.0,8.0,76,0.00,,,0.00,WeatherTracker,2013-11-24 06:10:00,
2013-11-24 00:15:00,47.1,39.9,30.24,NNE,12,3.0,6.0,76,0.00,,,0.00,WeatherTracker,2013-11-24 06:15:00,
2013-11-24 00:20:00,46.9,40.1,30.24,North,5,0.0,6.0,77,0.00,,,0.00,WeatherTracker,2013-11-24 06:20:00,
2013-11-24 00:30:00,46.6,40.1,30.24,NNW,343,0.0,7.0,78,0.00,,,0.00,WeatherTracker,2013-11-24 06:30:00,
2013-11-24 00:35:00,46.3,39.8,30.24,North,355,2.0,6.0,78,0.00,,,0.00,WeatherTracker,2013-11-24 06:35:00,
2013-11-24 00:40:00,46.2,39.7,30.24,NNE,15,0.0,8.0,78,0.00,,,0.00,WeatherTracker,2013-11-24 06:40:00,
2013-11-24 00:45:00,46.1,39.6,30.24,North,11,2.0,8.0,78,0.00,,,0.00,WeatherTracker,2013-11-24 06:45:00,
2013-11-24 00:50:00,46.0,39.2,30.24,NNE,28,0.0,7.0,77,0.00,,,0.00,WeatherTracker,2013-11-24 06:50:00,
2013-11-24 00:55:00,45.9,39.4,30.24,NNE,13,2.0,7.0,78,0.00,,,0.00,WeatherTracker,2013-11-24 06:55:00,
2013-11-24 01:00:00,45.8,39.0,30.24,NNE,17,0.0,9.0,77,0.00,,,0.00,WeatherTracker,2013-11-24 07:00:00,
2013-11-24 01:10:00,45.6,38.8,30.25,NNE,14,0.0,7.0,77,0.00,,,0.00,WeatherTracker,2013-11-24 07:10:00,
2013-11-24 01:20:00,45.3,38.5,30.25,North,355,0.0,5.0,77,0.00,,,0.00,WeatherTracker,2013-11-24 07:20:00,
2013-11-24 01:25:00,45.1,38.3,30.25,North,9,1.0,3.0,77,0.00,,,0.00,WeatherTracker,2013-11-24 07:25:00,
2013-11-24 01:30:00,45.0,38.2,30.25,North,9,0.0,7.0,77,0.00,,,0.00,WeatherTracker,2013-11-24 07:30:00,
2013-11-24 01:35:00,44.9,37.8,30.25,North,355,4.0,7.0,76,0.00,,,0.00,WeatherTracker,2013-11-24 07:35:00,
2013-11-24 01:45:00,44.7,37.6,30.25,NNE,15,0.0,6.0,76,0.00,,,0.00,WeatherTracker,2013-11-24 07:45:00,
2013-11-24 01:50:00,44.5,37.4,30.25,NNE,19,1.0,6.0,76,0.00,,,0.00,WeatherTracker,2013-11-24 07:50:00,
2013-11-24 01:55:00,44.4,37.3,30.25,North,11,7.0,7.0,76,0.00,,,0.00,WeatherTracker,2013-11-24 07:55:00,
2013-11-24 02:05:00,44.2,37.5,30.25,North,9,2.0,8.0,77,0.00,,,0.00,WeatherTracker,2013-11-24 08:05:00,
2013-11-24 02:15:00,44.2,37.5,30.26,North,5,0.0,9.0,77,0.00,,,0.00,WeatherTracker,2013-11-24 08:15:00,
2013-11-24 02:25:00,44.0,37.3,30.26,NNE,12,4.0,7.0,77,0.00,,,0.00,WeatherTracker,2013-11-24 08:25:00,
2013-11-24 02:35:00,43.9,36.5,30.26,NNE,17,0.0,10.0,75,0.00,,,0.00,WeatherTracker,2013-11-24 08:35:00,
2013-11-24 02:45:00,43.8,35.7,30.27,North,355,6.0,10.0,73,0.00,,,0.00,WeatherTracker,2013-11-24 08:45:00,
2013-11-24 02:55:00,43.7,35.6,30.26,NNW,339,1.0,10.0,73,0.00,,,0.00,WeatherTracker,2013-11-24 08:55:00,
2013-11-24 03:00:00,43.6,35.2,30.26,NE,38,6.0,9.0,72,0.00,,,0.00,WeatherTracker,2013-11-24 09:00:00,
2013-11-24 03:05:00,43.4,35.3,30.26,NNE,15,6.0,9.0,73,0.00,,,0.00,WeatherTracker,2013-11-24 09:05:00,
2013-11-24 03:10:00,43.2,35.5,30.27,NNE,31,0.0,7.0,74,0.00,,,0.00,WeatherTracker,2013-11-24 09:10:00,
2013-11-24 03:20:00,42.9,35.5,30.27,NNE,15,0.0,6.0,75,0.00,,,0.00,WeatherTracker,2013-11-24 09:20:00,
2013-11-24 03:25:00,42.7,35.7,30.27,NNE,18,4.0,7.0,76,0.00,,,0.00,WeatherTracker,2013-11-24 09:25:00,
2013-11-24 03:30:00,42.5,35.1,30.27,NNE,15,10.0,10.0,75,0.00,,,0.00,WeatherTracker,2013-11-24 09:30:00,
2013-11-24 03:35:00,42.5,34.8,30.27,NNE,15,4.0,11.0,74,0.00,,,0.00,WeatherTracker,2013-11-24 09:35:00,
2013-11-24 03:45:00,42.4,34.4,30.27,NNE,30,3.0,10.0,73,0.00,,,0.00,WeatherTracker,2013-11-24 09:45:00,
2013-11-24 03:50:00,42.3,34.6,30.27,North,5,4.0,9.0,74,0.00,,,0.00,WeatherTracker,2013-11-24 09:50:00,
2013-11-24 03:55:00,42.2,34.5,30.28,North,5,0.0,7.0,74,0.00,,,0.00,WeatherTracker,2013-11-24 09:55:00,
2013-11-24 04:05:00,42.1,33.7,30.27,NNE,15,1.0,10.0,72,0.00,,,0.00,WeatherTracker,2013-11-24 10:05:00,
2013-11-24 04:15:00,42.1,32.7,30.28,NE,51,6.0,13.0,69,0.00,,,0.00,WeatherTracker,2013-11-24 10:15:00,
2013-11-24 04:20:00,42.1,32.3,30.29,NNE,17,5.0,13.0,68,0.00,,,0.00,WeatherTracker,2013-11-24 10:20:00,
2013-11-24 04:30:00,42.0,32.6,30.29,NE,41,0.0,14.0,69,0.00,,,0.00,WeatherTracker,2013-11-24 10:30:00,
2013-11-24 04:40:00,41.8,32.0,30.29,NE,44,3.0,13.0,68,0.00,,,0.00,WeatherTracker,2013-11-24 10:40:00,
2013-11-24 04:45:00,41.7,31.9,30.30,NE,51,3.0,13.0,68,0.00,,,0.00,WeatherTracker,2013-11-24 10:45:00,
2013-11-24 04:50:00,41.5,31.7,30.30,ENE,73,7.0,13.0,68,0.00,,,0.00,WeatherTracker,2013-11-24 10:50:00,
2013-11-24 04:55:00,41.4,31.6,30.30,NNE,28,6.0,13.0,68,0.00,,,0.00,WeatherTracker,2013-11-24 10:55:00,
2013-11-24 05:05:00,41.3,31.2,30.30,NNE,29,10.0,14.0,67,0.00,,,0.00,WeatherTracker,2013-11-24 11:05:00,
2013-11-24 05:10:00,41.1,31.0,30.30,NE,45,5.0,15.0,67,0.00,,,0.00,WeatherTracker,2013-11-24 11:10:00,
2013-11-24 05:20:00,40.8,30.7,30.30,ENE,64,6.0,14.0,67,0.00,,,0.00,WeatherTracker,2013-11-24 11:20:00,
2013-11-24 05:25:00,40.6,30.9,30.31,NNE,12,5.0,12.0,68,0.00,,,0.00,WeatherTracker,2013-11-24 11:25:00,
2013-11-24 05:30:00,40.4,31.0,30.31,NNE,16,7.0,11.0,69,0.00,,,0.00,WeatherTracker,2013-11-24 11:30:00,
2013-11-24 05:35:00,40.2,30.9,30.31,NNE,28,0.0,11.0,69,0.00,,,0.00,WeatherTracker,2013-11-24 11:35:00,
2013-11-24 05:40:00,40.0,30.3,30.31,North,5,7.0,11.0,68,0.00,,,0.00,WeatherTracker,2013-11-24 11:40:00,
2013-11-24 05:50:00,39.7,29.7,30.32,NE,44,3.0,12.0,67,0.00,,,0.00,WeatherTracker,2013-11-24 11:50:00,
2013-11-24 06:00:00,39.5,29.8,30.33,NNE,15,0.0,12.0,68,0.00,,,0.00,WeatherTracker,2013-11-24 12:00:00,
2013-11-24 06:10:00,39.2,29.5,30.33,NNE,33,4.0,13.0,68,0.00,,,0.00,WeatherTracker,2013-11-24 12:10:00,
2013-11-24 06:20:00,39.0,29.0,30.33,NNE,14,2.0,14.0,67,0.00,,,0.00,WeatherTracker,2013-11-24 12:20:00,
2013-11-24 06:30:00,38.7,29.1,30.34,NNE,17,3.0,10.0,68,0.00,,,0.00,WeatherTracker,2013-11-24 12:30:00,
2013-11-24 06:35:00,38.5,28.9,30.34,NNE,13,2.0,8.0,68,0.00,,,0.00,WeatherTracker,2013-11-24 12:35:00,
2013-11-24 06:45:00,38.4,28.4,30.33,NNE,33,1.0,11.0,67,0.00,,,0.00,WeatherTracker,2013-11-24 12:45:00,
2013-11-24 06:50:00,38.6,28.2,30.33,NE,36,8.0,11.0,66,0.00,,,0.00,WeatherTracker,2013-11-24 12:50:00,
2013-11-24 07:00:00,38.8,28.4,30.34,NNE,19,1.0,14.0,66,0.00,,,0.00,WeatherTracker,2013-11-24 13:00:00,
2013-11-24 07:05:00,38.8,28.4,30.34,NNE,26,0.0,9.0,66,0.00,,,0.00,WeatherTracker,2013-11-24 13:05:00,
2013-11-24 07:10:00,38.9,29.3,30.34,NNE,17,7.0,9.0,68,0.00,,,0.00,WeatherTracker,2013-11-24 13:10:00,
2013-11-24 07:15:00,38.9,28.9,30.34,NNE,29,6.0,10.0,67,0.00,,,0.00,WeatherTracker,2013-11-24 13:15:00,
2013-11-24 07:25:00,38.7,28.3,30.34,NE,40,3.0,15.0,66,0.00,,,0.00,WeatherTracker,2013-11-24 13:25:00,
2013-11-24 07:30:00,38.9,27.8,30.35,NNE,30,6.0,14.0,64,0.00,,,0.00,WeatherTracker,2013-11-24 13:30:00,
2013-11-24 07:35:00,39.1,27.2,30.35,NE,35,10.0,16.0,62,0.00,,,0.00,WeatherTracker,2013-11-24 13:35:00,
2013-11-24 07:45:00,39.8,27.1,30.36,NE,56,6.0,16.0,60,0.00,,,0.00,WeatherTracker,2013-11-24 13:45:00,
2013-11-24 07:55:00,40.4,27.2,30.36,NNE,30,3.0,14.0,59,0.00,,,0.00,WeatherTracker,2013-11-24 13:55:00,
2013-11-24 08:00:00,40.6,27.0,30.37,NE,50,2.0,13.0,58,0.00,,,0.00,WeatherTracker,2013-11-24 14:00:00,
2013-11-24 08:05:00,41.0,26.9,30.37,North,9,12.0,13.0,57,0.00,,,0.00,WeatherTracker,2013-11-24 14:05:00,
2013-11-24 08:15:00,41.1,25.7,30.37,NNE,25,4.0,19.0,54,0.00,,,0.00,WeatherTracker,2013-11-24 14:15:00,
2013-11-24 08:20:00,41.5,26.1,30.37,NNE,28,10.0,19.0,54,0.00,,,0.00,WeatherTracker,2013-11-24 14:20:00,
2013-11-24 08:30:00,41.5,25.7,30.37,NE,35,8.0,21.0,53,0.00,,,0.00,WeatherTracker,2013-11-24 14:30:00,
2013-11-24 08:35:00,41.8,25.9,30.38,North,9,9.0,16.0,53,0.00,,,0.00,WeatherTracker,2013-11-24 14:35:00,
2013-11-24 08:40:00,42.2,25.9,30.38,NE,42,7.0,16.0,52,0.00,,,0.00,WeatherTracker,2013-11-24 14:40:00,
2013-11-24 08:45:00,42.6,26.2,30.38,NE,42,10.0,14.0,52,0.00,,,0.00,WeatherTracker,2013-11-24 14:45:00,
2013-11-24 08:50:00,42.9,25.6,30.38,ENE,61,7.0,15.0,50,0.00,,,0.00,WeatherTracker,2013-11-24 14:50:00,
2013-11-24 08:55:00,43.1,25.7,30.38,ENE,58,7.0,15.0,50,0.00,,,0.00,WeatherTracker,2013-11-24 14:55:00,
2013-11-24 09:05:00,44.0,26.6,30.39,North,11,7.0,17.0,50,0.00,,,0.00,WeatherTracker,2013-11-24 15:05:00,
2013-11-24 09:15:00,44.5,25.5,30.39,NNE,26,10.0,15.0,47,0.00,,,0.00,WeatherTracker,2013-11-24 15:15:00,
2013-11-24 09:20:00,45.1,26.1,30.39,NNE,15,9.0,14.0,47,0.00,,,0.00,WeatherTracker,2013-11-24 15:20:00,
2013-11-24 09:25:00,45.1,25.6,30.39,NE,38,4.0,14.0,46,0.00,,,0.00,WeatherTracker,2013-11-24 15:25:00,
2013-11-24 09:30:00,45.4,25.3,30.39,NE,50,4.0,14.0,45,0.00,,,0.00,WeatherTracker,2013-11-24 15:30:00,
2013-11-24 09:40:00,45.7,25.6,30.39,NNE,18,7.0,16.0,45,0.00,,,0.00,WeatherTracker,2013-11-24 15:40:00,
2013-11-24 09:45:00,46.0,25.3,30.39,ENE,76,2.0,16.0,44,0.00,,,0.00,WeatherTracker,2013-11-24 15:45:00,
2013-11-24 09:50:00,46.3,25.0,30.39,NE,51,2.0,13.0,43,0.00,,,0.00,WeatherTracker,2013-11-24 15:50:00,
2013-11-24 10:00:00,46.8,25.5,30.38,ENE,78,3.0,14.0,43,0.00,,,0.00,WeatherTracker,2013-11-24 16:00:00,
2013-11-24 10:10:00,47.2,25.9,30.38,NNE,19,15.0,16.0,43,0.00,,,0.00,WeatherTracker,2013-11-24 16:10:00,
2013-11-24 10:20:00,47.9,25.9,30.37,NE,38,8.0,15.0,42,0.00,,,0.00,WeatherTracker,2013-11-24 16:20:00,
2013-11-24 10:25:00,48.2,26.2,30.37,East,82,0.0,14.0,42,0.00,,,0.00,WeatherTracker,2013-11-24 16:25:00,
2013-11-24 10:35:00,49.7,27.6,30.36,NE,49,10.0,13.0,42,0.00,,,0.00,WeatherTracker,2013-11-24 16:35:00,
2013-11-24 10:40:00,49.5,27.4,30.36,North,5,5.0,11.0,42,0.00,,,0.00,WeatherTracker,2013-11-24 16:40:00,
2013-11-24 10:45:00,49.8,27.1,30.36,ENE,58,4.0,12.0,41,0.00,,,0.00,WeatherTracker,2013-11-24 16:45:00,
2013-11-24 10:50:00,50.0,27.8,30.35,East,81,3.0,12.0,42,0.00,,,0.00,WeatherTracker,2013-11-24 16:50:00,
2013-11-24 10:55:00,49.9,26.5,30.35,NE,40,8.0,12.0,40,0.00,,,0.00,WeatherTracker,2013-11-24 16:55:00,
2013-11-24 11:00:00,49.4,26.1,30.35,ENE,65,1.0,17.0,40,0.00,,,0.00,WeatherTracker,2013-11-24 17:00:00,
2013-11-24 11:10:00,49.8,27.1,30.34,ENE,68,4.0,13.0,41,0.00,,,0.00,WeatherTracker,2013-11-24 17:10:00,
2013-11-24 11:15:00,50.3,27.5,30.34,NE,43,6.0,13.0,41,0.00,,,0.00,WeatherTracker,2013-11-24 17:15:00,
2013-11-24 11:20:00,50.9,26.8,30.34,ENE,65,5.0,16.0,39,0.00,,,0.00,WeatherTracker,2013-11-24 17:20:00,
2013-11-24 11:30:00,50.7,27.3,30.33,ENE,78,4.0,12.0,40,0.00,,,0.00,WeatherTracker,2013-11-24 17:30:00,
2013-11-24 11:35:00,50.8,27.4,30.33,East,80,5.0,13.0,40,0.00,,,0.00,WeatherTracker,2013-11-24 17:35:00,
2013-11-24 11:40:00,51.5,28.6,30.33,NNE,28,6.0,13.0,41,0.00,,,0.00,WeatherTracker,2013-11-24 17:40:00,
2013-11-24 11:45:00,52.1,28.5,30.33,NE,41,6.0,9.0,40,0.00,,,0.00,WeatherTracker,2013-11-24 17:45:00,
2013-11-24 11:55:00,51.6,26.8,30.32,ENE,69,8.0,14.0,38,0.00,,,0.00,WeatherTracker,2013-11-24 17:55:00,
2013-11-24 12:00:00,51.0,26.9,30.32,NNE,21,3.0,14.0,39,0.00,,,0.00,WeatherTracker,2013-11-24 18:00:00,
2013-11-24 12:10:00,52.7,28.4,30.32,East,88,0.0,15.0,39,0.00,,,0.00,WeatherTracker,2013-11-24 18:10:00,
2013-11-24 12:15:00,53.3,30.2,30.31,ENE,63,6.0,11.0,41,0.00,,,0.00,WeatherTracker,2013-11-24 18:15:00,
2013-11-24 12:25:00,52.7,27.8,30.31,ENE,77,0.0,13.0,38,0.00,,,0.00,WeatherTracker,2013-11-24 18:25:00,
2013-11-24 12:35:00,53.6,28.0,30.31,ENE,62,6.0,9.0,37,0.00,,,0.00,WeatherTracker,2013-11-24 18:35:00,
2013-11-24 12:45:00,53.6,28.0,30.30,NE,42,7.0,10.0,37,0.00,,,0.00,WeatherTracker,2013-11-24 18:45:00,
2013-11-24 12:55:00,54.0,28.3,30.30,ENE,62,4.0,11.0,37,0.00,,,0.00,WeatherTracker,2013-11-24 18:55:00,
2013-11-24 13:00:00,54.7,28.9,30.30,ENE,73,0.0,11.0,37,0.00,,,0.00,WeatherTracker,2013-11-24 19:00:00,
2013-11-24 13:10:00,55.4,28.9,30.29,NE,50,11.0,11.0,36,0.00,,,0.00,WeatherTracker,2013-11-24 19:10:00,
2013-11-24 13:15:00,55.1,27.9,30.29,NE,38,4.0,11.0,35,0.00,,,0.00,WeatherTracker,2013-11-24 19:15:00,
2013-11-24 13:20:00,54.9,27.1,30.29,NE,40,4.0,12.0,34,0.00,,,0.00,WeatherTracker,2013-11-24 19:20:00,
2013-11-24 13:30:00,54.7,26.9,30.28,NE,56,0.0,11.0,34,0.00,,,0.00,WeatherTracker,2013-11-24 19:30:00,
2013-11-24 13:35:00,55.3,28.1,30.29,East,86,0.0,12.0,35,0.00,,,0.00,WeatherTracker,2013-11-24 19:35:00,
2013-11-24 13:40:00,55.5,27.6,30.29,East,84,6.0,12.0,34,0.00,,,0.00,WeatherTracker,2013-11-24 19:40:00,
2013-11-24 13:45:00,55.1,27.2,30.29,NE,34,7.0,10.0,34,0.00,,,0.00,WeatherTracker,2013-11-24 19:45:00,
2013-11-24 13:55:00,55.8,27.9,30.29,East,87,0.0,8.0,34,0.00,,,0.00,WeatherTracker,2013-11-24 19:55:00,
2013-11-24 14:00:00,55.9,27.9,30.28,NE,39,7.0,7.0,34,0.00,,,0.00,WeatherTracker,2013-11-24 20:00:00,
2013-11-24 14:05:00,55.4,26.8,30.28,NE,39,4.0,8.0,33,0.00,,,0.00,WeatherTracker,2013-11-24 20:05:00,
2013-11-24 14:10:00,55.4,27.5,30.28,NE,38,7.0,8.0,34,0.00,,,0.00,WeatherTracker,2013-11-24 20:10:00,
2013-11-24 14:20:00,54.6,26.8,30.28,ENE,70,2.0,10.0,34,0.00,,,0.00,WeatherTracker,2013-11-24 20:20:00,
2013-11-24 14:25:00,54.8,27.7,30.29,ENE,67,0.0,9.0,35,0.00,,,0.00,WeatherTracker,2013-11-24 20:25:00,
2013-11-24 14:30:00,54.8,27.7,30.29,East,82,1.0,8.0,35,0.00,,,0.00,WeatherTracker,2013-11-24 20:30:00,
2013-11-24 14:35:00,55.0,27.9,30.29,NNE,30,5.0,8.0,35,0.00,,,0.00,WeatherTracker,2013-11-24 20:35:00,
2013-11-24 14:45:00,55.1,28.6,30.29,NE,53,0.0,13.0,36,0.00,,,0.00,WeatherTracker,2013-11-24 20:45:00,
2013-11-24 14:55:00,54.3,27.2,30.29,East,80,0.0,11.0,35,0.00,,,0.00,WeatherTracker,2013-11-24 20:55:00,
2013-11-24 15:00:00,54.5,28.1,30.29,NE,52,2.0,11.0,36,0.00,,,0.00,WeatherTracker,2013-11-24 21:00:00,
2013-11-24 15:05:00,54.4,28.0,30.29,ENE,57,5.0,7.0,36,0.00,,,0.00,WeatherTracker,2013-11-24 21:05:00,
2013-11-24 15:15:00,53.3,27.7,30.30,ENE,78,2.0,11.0,37,0.00,,,0.00,WeatherTracker,2013-11-24 21:15:00,
2013-11-24 15:20:00,53.3,27.0,30.30,NE,42,6.0,10.0,36,0.00,,,0.00,WeatherTracker,2013-11-24 21:20:00,
2013-11-24 15:30:00,53.3,28.3,30.30,ENE,77,0.0,13.0,38,0.00,,,0.00,WeatherTracker,2013-11-24 21:30:00,
2013-11-24 15:35:00,53.1,28.2,30.30,East,83,0.0,13.0,38,0.00,,,0.00,WeatherTracker,2013-11-24 21:35:00,
2013-11-24 15:40:00,52.9,28.6,30.30,ENE,63,1.0,8.0,39,0.00,,,0.00,WeatherTracker,2013-11-24 21:40:00,
2013-11-24 15:50:00,52.4,28.2,30.30,ENE,57,0.0,8.0,39,0.00,,,0.00,WeatherTracker,2013-11-24 21:50:00,
2013-11-24 16:00:00,52.3,28.7,30.30,ENE,68,0.0,5.0,40,0.00,,,0.00,WeatherTracker,2013-11-24 22:00:00,
2013-11-24 16:10:00,51.8,28.3,30.31,ENE,65,0.0,6.0,40,0.00,,,0.00,WeatherTracker,2013-11-24 22:10:00,
2013-11-24 16:15:00,51.4,28.5,30.31,East,90,0.0,6.0,41,0.00,,,0.00,WeatherTracker,2013-11-24 22:15:00,
2013-11-24 16:25:00,50.5,28.3,30.32,ENE,76,0.0,2.0,42,0.00,,,0.00,WeatherTracker,2013-11-24 22:25:00,
2013-11-24 16:30:00,50.1,28.5,30.32,ESE,103,0.0,0.0,43,0.00,,,0.00,WeatherTracker,2013-11-24 22:30:00,
2013-11-24 16:40:00,49.2,28.2,30.32,ESE,103,0.0,0.0,44,0.00,,,0.00,WeatherTracker,2013-11-24 22:40:00,
2013-11-24 16:50:00,48.3,28.5,30.32,ESE,103,0.0,0.0,46,0.00,,,0.00,WeatherTracker,2013-11-24 22:50:00,
2013-11-24 16:55:00,48.0,28.7,30.32,ESE,103,0.0,0.0,47,0.00,,,0.00,WeatherTracker,2013-11-24 22:55:00,
2013-11-24 17:05:00,47.3,29.1,30.32,ESE,103,0.0,0.0,49,0.00,,,0.00,WeatherTracker,2013-11-24 23:05:00,
2013-11-24 17:10:00,46.9,29.2,30.32,ESE,102,0.0,0.0,50,0.00,,,0.00,WeatherTracker,2013-11-24 23:10:00,
2013-11-24 17:20:00,46.3,29.2,30.32,ESE,102,0.0,0.0,51,0.00,,,0.00,WeatherTracker,2013-11-24 23:20:00,
2013-11-24 17:30:00,46.0,28.9,30.32,ESE,102,0.0,0.0,51,0.00,,,0.00,WeatherTracker,2013-11-24 23:30:00,
2013-11-24 17:35:00,45.8,29.2,30.33,East,101,0.0,0.0,52,0.00,,,0.00,WeatherTracker,2013-11-24 23:35:00,
2013-11-24 17:40:00,45.6,29.0,30.33,East,101,0.0,0.0,52,0.00,,,0.00,WeatherTracker,2013-11-24 23:40:00,
2013-11-24 17:50:00,45.3,29.2,30.34,East,101,0.0,0.0,53,0.00,,,0.00,WeatherTracker,2013-11-24 23:50:00,
2013-11-24 17:55:00,45.1,29.0,30.34,East,101,0.0,0.0,53,0.00,,,0.00,WeatherTracker,2013-11-24 23:55:00,
2013-11-24 18:00:00,44.9,29.3,30.34,East,101,0.0,0.0,54,0.00,,,0.00,WeatherTracker,2013-11-25 00:00:00,
2013-11-24 18:05:00,44.7,30.4,30.34,ESE,102,0.0,0.0,57,0.00,,,0.00,WeatherTracker,2013-11-25 00:05:00,
2013-11-24 18:10:00,44.4,30.1,30.34,East,101,0.0,0.0,57,0.00,,,0.00,WeatherTracker,2013-11-25 00:10:00,
2013-11-24 18:20:00,43.6,30.6,30.34,ESE,102,0.0,0.0,60,0.00,,,0.00,WeatherTracker,2013-11-25 00:20:00,
2013-11-24 18:25:00,43.2,29.9,30.34,East,101,0.0,0.0,59,0.00,,,0.00,WeatherTracker,2013-11-25 00:25:00,
2013-11-24 18:35:00,42.8,29.9,30.34,East,101,0.0,0.0,60,0.00,,,0.00,WeatherTracker,2013-11-25 00:35:00,
2013-11-24 18:40:00,42.8,29.9,30.34,East,101,0.0,0.0,60,0.00,,,0.00,WeatherTracker,2013-11-25 00:40:00,
2013-11-24 18:45:00,42.8,29.9,30.34,East,101,0.0,0.0,60,0.00,,,0.00,WeatherTracker,2013-11-25 00:45:00,
2013-11-24 18:50:00,42.7,29.8,30.34,East,101,0.0,0.0,60,0.00,,,0.00,WeatherTracker,2013-11-25 00:50:00,
2013-11-24 18:55:00,42.6,29.7,30.34,East,101,0.0,0.0,60,0.00,,,0.00,WeatherTracker,2013-11-25 00:55:00,
2013-11-24 19:00:00,42.5,30.0,30.34,East,101,0.0,0.0,61,0.00,,,0.00,WeatherTracker,2013-11-25 01:00:00,
2013-11-24 19:05:00,42.4,30.3,30.34,East,101,0.0,0.0,62,0.00,,,0.00,WeatherTracker,2013-11-25 01:05:00,
2013-11-24 19:15:00,42.0,30.3,30.34,East,101,0.0,0.0,63,0.00,,,0.00,WeatherTracker,2013-11-25 01:15:00,
2013-11-24 19:20:00,41.8,30.1,30.35,East,101,0.0,0.0,63,0.00,,,0.00,WeatherTracker,2013-11-25 01:20:00,
2013-11-24 19:25:00,41.7,30.0,30.35,East,101,0.0,0.0,63,0.00,,,0.00,WeatherTracker,2013-11-25 01:25:00,
2013-11-24 19:30:00,41.5,29.9,30.35,East,101,0.0,0.0,63,0.00,,,0.00,WeatherTracker,2013-11-25 01:30:00,
2013-11-24 19:35:00,41.3,29.7,30.36,East,101,0.0,0.0,63,0.00,,,0.00,WeatherTracker,2013-11-25 01:35:00,
2013-11-24 19:45:00,40.9,29.7,30.36,East,101,0.0,0.0,64,0.00,,,0.00,WeatherTracker,2013-11-25 01:45:00,
2013-11-24 19:50:00,40.9,29.7,30.36,East,101,0.0,0.0,64,0.00,,,0.00,WeatherTracker,2013-11-25 01:50:00,
2013-11-24 19:55:00,40.8,29.6,30.36,East,101,0.0,0.0,64,0.00,,,0.00,WeatherTracker,2013-11-25 01:55:00,
2013-11-24 20:05:00,40.6,29.8,30.36,East,101,0.0,0.0,65,0.00,,,0.00,WeatherTracker,2013-11-25 02:05:00,
2013-11-24 20:10:00,40.5,29.7,30.36,East,101,0.0,0.0,65,0.00,,,0.00,WeatherTracker,2013-11-25 02:10:00,
2013-11-24 20:20:00,40.4,29.6,30.36,East,101,0.0,0.0,65,0.00,,,0.00,WeatherTracker,2013-11-25 02:20:00,
2013-11-24 20:25:00,40.4,30.0,30.36,East,101,0.0,0.0,66,0.00,,,0.00,WeatherTracker,2013-11-25 02:25:00,
2013-11-24 20:35:00,40.2,29.8,30.36,East,101,0.0,0.0,66,0.00,,,0.00,WeatherTracker,2013-11-25 02:35:00,
2013-11-24 20:40:00,40.1,30.0,30.36,East,101,0.0,0.0,67,0.00,,,0.00,WeatherTracker,2013-11-25 02:40:00,
2013-11-24 20:50:00,39.9,29.8,30.37,East,101,0.0,0.0,67,0.00,,,0.00,WeatherTracker,2013-11-25 02:50:00,
2013-11-24 20:55:00,39.8,29.8,30.37,East,100,0.0,0.0,67,0.00,,,0.00,WeatherTracker,2013-11-25 02:55:00,
2013-11-24 21:00:00,39.7,29.7,30.37,East,98,0.0,0.0,67,0.00,,,0.00,WeatherTracker,2013-11-25 03:00:00,
2013-11-24 21:10:00,39.8,29.8,30.36,ENE,67,0.0,3.0,67,0.00,,,0.00,WeatherTracker,2013-11-25 03:10:00,
2013-11-24 21:20:00,39.7,30.0,30.36,ENE,65,0.0,2.0,68,0.00,,,0.00,WeatherTracker,2013-11-25 03:20:00,
2013-11-24 21:30:00,39.5,29.8,30.36,ENE,64,0.0,0.0,68,0.00,,,0.00,WeatherTracker,2013-11-25 03:30:00,
2013-11-24 21:35:00,39.4,30.1,30.36,ENE,64,0.0,2.0,69,0.00,,,0.00,WeatherTracker,2013-11-25 03:35:00,
2013-11-24 21:40:00,39.2,29.9,30.36,ENE,63,0.0,2.0,69,0.00,,,0.00,WeatherTracker,2013-11-25 03:40:00,
2013-11-24 21:45:00,39.1,29.8,30.36,ENE,63,0.0,1.0,69,0.00,,,0.00,WeatherTracker,2013-11-25 03:45:00,
2013-11-24 21:50:00,38.9,30.0,30.36,ENE,62,0.0,2.0,70,0.00,,,0.00,WeatherTracker,2013-11-25 03:50:00,
2013-11-24 22:00:00,38.7,30.1,30.36,ENE,65,0.0,4.0,71,0.00,,,0.00,WeatherTracker,2013-11-25 04:00:00,
2013-11-24 22:10:00,38.6,30.0,30.35,ESE,111,0.0,1.0,71,0.00,,,0.00,WeatherTracker,2013-11-25 04:10:00,
2013-11-24 22:15:00,38.6,29.7,30.35,ESE,110,0.0,1.0,70,0.00,,,0.00,WeatherTracker,2013-11-25 04:15:00,
2013-11-24 22:20:00,38.8,29.9,30.36,East,85,0.0,1.0,70,0.00,,,0.00,WeatherTracker,2013-11-25 04:20:00,
2013-11-24 22:25:00,39.2,29.9,30.36,East,88,0.0,2.0,69,0.00,,,0.00,WeatherTracker,2013-11-25 04:25:00,
2013-11-24 22:30:00,39.5,29.5,30.36,ESE,111,0.0,4.0,67,0.00,,,0.00,WeatherTracker,2013-11-25 04:30:00,
2013-11-24 22:35:00,39.9,29.5,30.36,East,93,0.0,4.0,66,0.00,,,0.00,WeatherTracker,2013-11-25 04:35:00,
2013-11-24 22:45:00,40.4,29.6,30.36,ENE,68,0.0,7.0,65,0.00,,,0.00,WeatherTracker,2013-11-25 04:45:00,
2013-11-24 22:50:00,40.6,29.4,30.35,ESE,110,0.0,7.0,64,0.00,,,0.00,WeatherTracker,2013-11-25 04:50:00,
2013-11-24 23:00:00,40.9,28.9,30.35,ESE,118,0.0,6.0,62,0.00,,,0.00,WeatherTracker,2013-11-25 05:00:00,
2013-11-24 23:05:00,41.0,29.0,30.35,ESE,118,0.0,5.0,62,0.00,,,0.00,WeatherTracker,2013-11-25 05:05:00,
2013-11-24 23:10:00,41.0,28.6,30.35,East,99,0.0,6.0,61,0.00,,,0.00,WeatherTracker,2013-11-25 05:10:00,
2013-11-24 23:15:00,41.1,28.7,30.35,SSE,149,0.0,6.0,61,0.00,,,0.00,WeatherTracker,2013-11-25 05:15:00,
2013-11-24 23:20:00,41.1,28.7,30.35,SE,124,1.0,3.0,61,0.00,,,0.00,WeatherTracker,2013-11-25 05:20:00,
2013-11-24 23:25:00,41.2,28.4,30.35,ESE,109,0.0,6.0,60,0.00,,,0.00,WeatherTracker,2013-11-25 05:25:00,
2013-11-24 23:30:00,41.3,28.5,30.35,ESE,119,0.0,6.0,60,0.00,,,0.00,WeatherTracker,2013-11-25 05:30:00,
2013-11-24 23:35:00,41.4,28.6,30.35,ESE,105,0.0,6.0,60,0.00,,,0.00,WeatherTracker,2013-11-25 05:35:00,
2013-11-24 23:40:00,41.4,28.2,30.35,ESE,105,0.0,6.0,59,0.00,,,0.00,WeatherTracker,2013-11-25 05:40:00,
2013-11-24 23:45:00,41.4,28.2,30.35,SE,137,0.0,6.0,59,0.00,,,0.00,WeatherTracker,2013-11-25 05:45:00,
2013-11-24 23:50:00,41.4,28.2,30.35,ESE,112,0.0,6.0,59,0.00,,,0.00,WeatherTracker,2013-11-25 05:50:00,
2013-11-24 23:55:00,41.4,28.2,30.35,ESE,123,0.0,8.0,59,0.00,,,0.00,WeatherTracker,2013-11-25 05:55:00,